Time;durP1;ratioP1;P1;durP2;ratioP2;P2;SDS_P1;SDS_P2;PMS_P1;PMS_P2;Temp;Humidity;BMP_temperature;BMP_pressure;BME280_temperature;BME280_humidity;BME280_pressure;Samples;Min_cycle;Max_cycle;Signal;HPM_P1;HPM_P2
2023/03/11 00:01:48;;;;;;;4.27;1.43;;;;;;;;;;5068761;28;20217;-68
2023/03/11 00:04:14;;;;;;;2.90;1.20;;;;;;;;;;5069345;28;20207;-67
2023/03/11 00:06:39;;;;;;;2.43;1.03;;;;;;;;;;5069414;28;20310;-68
2023/03/11 00:09:04;;;;;;;3.73;1.80;;;;;;;;;;5068455;28;20210;-67
2023/03/11 00:11:30;;;;;;;3.30;1.23;;;;;;;;;;5069468;28;20207;-68
2023/03/11 00:13:55;;;;;;;3.77;1.50;;;;;;;;;;5070126;28;20206;-68
2023/03/11 00:16:20;;;;;;;5.30;1.70;;;;;;;;;;5071841;28;20249;-67
2023/03/11 00:18:48;;;;;;;5.43;1.30;;;;;;;;;;5073095;28;20660;-68
2023/03/11 00:21:15;;;;;;;3.03;1.17;;;;;;;;;;5037970;28;20228;-68
2023/03/11 00:23:40;;;;;;;3.70;1.10;;;;;;;;;;5072506;28;20290;-68
2023/03/11 00:26:05;;;;;;;2.30;1.00;;;;;;;;;;5067790;28;20652;-67
2023/03/11 00:28:30;;;;;;;6.00;1.30;;;;;;;;;;5052912;28;20219;-68
2023/03/11 00:30:56;;;;;;;3.17;1.30;;;;;;;;;;5052116;28;20211;-68
2023/03/11 00:33:22;;;;;;;6.30;1.50;;;;;;;;;;5034480;28;20219;-68
2023/03/11 00:35:48;;;;;;;3.53;1.23;;;;;;;;;;5052973;28;20203;-68
2023/03/11 00:38:14;;;;;;;3.47;1.30;;;;;;;;;;5051548;28;20230;-68
2023/03/11 00:40:39;;;;;;;4.07;1.13;;;;;;;;;;5052798;28;20713;-68
2023/03/11 00:43:04;;;;;;;4.67;1.40;;;;;;;;;;5051997;28;20234;-67
2023/03/11 00:45:30;;;;;;;5.40;1.17;;;;;;;;;;5052050;28;20214;-67
2023/03/11 00:47:55;;;;;;;4.53;1.17;;;;;;;;;;5028922;28;20211;-68
2023/03/11 00:50:22;;;;;;;3.10;1.20;;;;;;;;;;5039783;28;20685;-67
2023/03/11 00:52:47;;;;;;;4.90;1.40;;;;;;;;;;5032631;28;20216;-68
2023/03/11 00:55:14;;;;;;;2.47;1.10;;;;;;;;;;5032205;28;20220;-67
2023/03/11 00:57:39;;;;;;;5.97;1.77;;;;;;;;;;5013909;28;20929;-67
2023/03/11 01:00:09;;;;;;;8.37;1.80;;;;;;;;;;5031986;28;20212;-67
2023/03/11 01:02:35;;;;;;;3.37;1.37;;;;;;;;;;5032245;28;20215;-67
2023/03/11 01:05:00;;;;;;;5.23;1.23;;;;;;;;;;5031377;28;20216;-65
2023/03/11 01:07:25;;;;;;;5.23;1.57;;;;;;;;;;5052213;28;20554;-67
2023/03/11 01:09:51;;;;;;;2.77;1.10;;;;;;;;;;5052011;28;20219;-67
2023/03/11 01:12:16;;;;;;;2.23;1.00;;;;;;;;;;5050967;28;20677;-67
2023/03/11 01:14:42;;;;;;;5.37;1.40;;;;;;;;;;5052260;28;20203;-67
2023/03/11 01:17:07;;;;;;;5.83;1.43;;;;;;;;;;5051381;28;20343;-67
2023/03/11 01:19:32;;;;;;;5.23;1.40;;;;;;;;;;5069700;28;20209;-67
2023/03/11 01:21:58;;;;;;;4.00;1.20;;;;;;;;;;5072091;28;20206;-67
2023/03/11 01:24:23;;;;;;;3.93;1.47;;;;;;;;;;5071512;28;20683;-67
2023/03/11 01:26:48;;;;;;;5.33;1.30;;;;;;;;;;5071142;28;20945;-67
2023/03/11 01:29:13;;;;;;;5.10;1.70;;;;;;;;;;5071211;28;20214;-67
2023/03/11 01:31:39;;;;;;;4.77;1.40;;;;;;;;;;5071978;28;20217;-67
2023/03/11 01:34:04;;;;;;;4.03;1.20;;;;;;;;;;5070299;28;20219;-66
2023/03/11 01:36:29;;;;;;;6.03;1.80;;;;;;;;;;5071843;28;20218;-66
2023/03/11 01:38:55;;;;;;;5.60;1.23;;;;;;;;;;5071729;28;20207;-66
2023/03/11 01:41:20;;;;;;;5.50;1.20;;;;;;;;;;5070308;28;20219;-67
2023/03/11 01:43:47;;;;;;;4.63;1.40;;;;;;;;;;5071337;28;20302;-66
2023/03/11 01:46:14;;;;;;;3.87;1.30;;;;;;;;;;5070958;28;20214;-66
2023/03/11 01:48:41;;;;;;;2.80;1.37;;;;;;;;;;5047172;28;20203;-67
2023/03/11 01:51:06;;;;;;;3.53;1.40;;;;;;;;;;5033145;28;20581;-66
2023/03/11 01:53:31;;;;;;;3.37;1.20;;;;;;;;;;5033020;28;20683;-67
2023/03/11 01:55:57;;;;;;;4.97;1.30;;;;;;;;;;5051215;28;20257;-66
2023/03/11 01:58:23;;;;;;;3.87;1.30;;;;;;;;;;5050659;28;20211;-66
2023/03/11 02:00:48;;;;;;;4.40;1.37;;;;;;;;;;5032633;28;20620;-66
2023/03/11 02:03:17;;;;;;;6.93;1.40;;;;;;;;;;5032736;28;20235;-66
2023/03/11 02:05:42;;;;;;;4.53;1.30;;;;;;;;;;5033385;28;20693;-66
2023/03/11 02:08:08;;;;;;;4.53;1.20;;;;;;;;;;5049890;28;20231;-66
2023/03/11 02:10:33;;;;;;;5.00;1.50;;;;;;;;;;5016715;28;20767;-66
2023/03/11 02:12:58;;;;;;;4.47;1.40;;;;;;;;;;5051092;28;20253;-66
2023/03/11 02:15:23;;;;;;;3.90;1.20;;;;;;;;;;5049560;28;20215;-66
2023/03/11 02:17:49;;;;;;;4.17;1.20;;;;;;;;;;5050737;28;20215;-66
2023/03/11 02:20:26;;;;;;;4.30;1.20;;;;;;;;;;5047658;28;20217;-66
2023/03/11 02:22:55;;;;;;;2.50;1.20;;;;;;;;;;5048971;28;20213;-66
2023/03/11 02:25:39;;;;;;;4.33;1.23;;;;;;;;;;5049122;28;20235;-66
2023/03/11 02:28:04;;;;;;;4.93;1.27;;;;;;;;;;5023878;28;20231;-66
2023/03/11 02:30:30;;;;;;;6.83;1.20;;;;;;;;;;5012231;28;20269;-66
2023/03/11 02:32:55;;;;;;;3.43;1.20;;;;;;;;;;5030752;28;20683;-66
2023/03/11 02:35:20;;;;;;;3.63;1.40;;;;;;;;;;5012493;28;20302;-66
2023/03/11 02:37:46;;;;;;;4.67;1.37;;;;;;;;;;5012085;28;20690;-67
2023/03/11 02:40:21;;;;;;;5.70;1.40;;;;;;;;;;5030058;28;20207;-66
2023/03/11 02:42:46;;;;;;;3.80;1.20;;;;;;;;;;5030121;28;20202;-66
2023/03/11 02:45:13;;;;;;;4.93;1.20;;;;;;;;;;5012250;28;20212;-66
2023/03/11 02:47:38;;;;;;;6.53;1.30;;;;;;;;;;5027508;28;20245;-66
2023/03/11 02:50:04;;;;;;;3.43;1.10;;;;;;;;;;5049149;28;20218;-65
2023/03/11 02:52:30;;;;;;;3.60;1.20;;;;;;;;;;5050531;28;20580;-66
2023/03/11 02:54:55;;;;;;;6.90;1.27;;;;;;;;;;5049211;28;20705;-66
2023/03/11 02:57:20;;;;;;;3.73;1.10;;;;;;;;;;5049273;28;20218;-66
2023/03/11 02:59:46;;;;;;;4.67;1.03;;;;;;;;;;5050285;28;20211;-66
2023/03/11 03:02:11;;;;;;;5.50;1.37;;;;;;;;;;5049936;28;20316;-66
2023/03/11 03:04:36;;;;;;;4.77;1.10;;;;;;;;;;5049447;28;20793;-66
2023/03/11 03:07:01;;;;;;;3.20;1.00;;;;;;;;;;5049803;28;20231;-65
2023/03/11 03:09:27;;;;;;;4.20;1.10;;;;;;;;;;5048875;28;20226;-66
2023/03/11 03:11:52;;;;;;;3.53;1.00;;;;;;;;;;5049547;28;20213;-66
2023/03/11 03:14:17;;;;;;;3.07;1.13;;;;;;;;;;5049834;28;20211;-65
2023/03/11 03:16:43;;;;;;;5.87;1.10;;;;;;;;;;5049844;28;20230;-65
2023/03/11 03:19:08;;;;;;;4.13;1.17;;;;;;;;;;5058106;28;20923;-65
2023/03/11 03:21:33;;;;;;;6.43;1.47;;;;;;;;;;5069908;28;20238;-65
2023/03/11 03:23:58;;;;;;;3.40;1.10;;;;;;;;;;5070185;28;20238;-65
2023/03/11 03:26:24;;;;;;;4.70;1.00;;;;;;;;;;5068792;28;20210;-65
2023/03/11 03:28:49;;;;;;;4.17;1.13;;;;;;;;;;5070074;28;20497;-65
2023/03/11 03:31:14;;;;;;;5.20;1.20;;;;;;;;;;5069357;28;20218;-65
2023/03/11 03:33:39;;;;;;;5.10;1.17;;;;;;;;;;5069285;28;20210;-65
2023/03/11 03:36:06;;;;;;;5.53;1.10;;;;;;;;;;5069343;28;20242;-63
2023/03/11 03:38:31;;;;;;;4.83;1.13;;;;;;;;;;5053086;28;20207;-64
2023/03/11 03:40:57;;;;;;;4.40;1.00;;;;;;;;;;5037893;28;20214;-64
2023/03/11 03:43:22;;;;;;;4.70;1.50;;;;;;;;;;5043623;28;20226;-64
2023/03/11 03:45:54;;;;;;;3.37;1.10;;;;;;;;;;5037598;28;20819;-65
2023/03/11 03:48:19;;;;;;;4.37;1.53;;;;;;;;;;5034397;28;20223;-65
2023/03/11 03:50:45;;;;;;;2.43;1.00;;;;;;;;;;5036232;28;20211;-65
2023/03/11 03:53:10;;;;;;;6.43;1.43;;;;;;;;;;5038282;28;20638;-65
2023/03/11 03:55:35;;;;;;;2.70;1.10;;;;;;;;;;5054899;28;20217;-65
2023/03/11 03:58:00;;;;;;;3.20;1.03;;;;;;;;;;5062728;28;20238;-64
2023/03/11 04:00:26;;;;;;;3.13;1.17;;;;;;;;;;5049879;28;20984;-65
2023/03/11 04:02:51;;;;;;;3.43;1.13;;;;;;;;;;5043622;28;20204;-66
2023/03/11 04:05:17;;;;;;;2.00;0.90;;;;;;;;;;5043353;28;20416;-65
2023/03/11 04:07:42;;;;;;;3.30;1.00;;;;;;;;;;5042024;28;20285;-65
2023/03/11 04:10:07;;;;;;;4.60;1.30;;;;;;;;;;5036519;28;20215;-65
2023/03/11 04:12:33;;;;;;;3.13;1.10;;;;;;;;;;5046137;28;20268;-65
2023/03/11 04:14:58;;;;;;;3.60;1.00;;;;;;;;;;5055714;28;20228;-66
2023/03/11 04:17:23;;;;;;;5.50;1.20;;;;;;;;;;5062453;28;20246;-65
2023/03/11 04:19:49;;;;;;;3.03;0.97;;;;;;;;;;5043539;28;20207;-65
2023/03/11 04:22:14;;;;;;;4.73;1.20;;;;;;;;;;5040730;28;20230;-65
2023/03/11 04:24:39;;;;;;;3.57;1.10;;;;;;;;;;5043428;28;20217;-65
2023/03/11 04:27:04;;;;;;;4.63;1.13;;;;;;;;;;5042833;28;20709;-65
2023/03/11 04:29:30;;;;;;;4.33;1.13;;;;;;;;;;5042373;28;20215;-65
2023/03/11 04:31:55;;;;;;;4.27;1.10;;;;;;;;;;5036486;28;20211;-65
2023/03/11 04:34:20;;;;;;;5.33;1.10;;;;;;;;;;5035355;28;20538;-65
2023/03/11 04:36:46;;;;;;;4.10;1.10;;;;;;;;;;5036719;28;20211;-65
2023/03/11 04:39:11;;;;;;;3.03;1.03;;;;;;;;;;5053105;28;20292;-64
2023/03/11 04:41:36;;;;;;;4.17;1.40;;;;;;;;;;5061082;28;20215;-64
2023/03/11 04:44:01;;;;;;;3.80;1.00;;;;;;;;;;5046735;28;20231;-63
2023/03/11 04:46:27;;;;;;;3.97;0.90;;;;;;;;;;5048341;28;21092;-65
2023/03/11 04:48:52;;;;;;;3.40;1.10;;;;;;;;;;5042959;28;20253;-65
2023/03/11 04:51:17;;;;;;;2.63;1.00;;;;;;;;;;5041780;28;20268;-64
2023/03/11 04:53:43;;;;;;;3.87;1.03;;;;;;;;;;5039957;28;20876;-65
2023/03/11 04:56:08;;;;;;;3.87;1.40;;;;;;;;;;5035176;28;20219;-64
2023/03/11 04:58:33;;;;;;;5.30;1.03;;;;;;;;;;5032903;28;20242;-64
2023/03/11 05:00:59;;;;;;;3.27;1.07;;;;;;;;;;5037611;28;20211;-63
2023/03/11 05:03:24;;;;;;;4.73;1.20;;;;;;;;;;5042058;28;20284;-63
2023/03/11 05:05:51;;;;;;;3.40;1.10;;;;;;;;;;5040817;28;20708;-64
2023/03/11 05:08:17;;;;;;;2.93;1.27;;;;;;;;;;5061465;28;20241;-63
2023/03/11 05:10:43;;;;;;;3.27;1.00;;;;;;;;;;5061441;28;20206;-64
2023/03/11 05:13:08;;;;;;;3.00;1.03;;;;;;;;;;5061602;28;20226;-63
2023/03/11 05:15:34;;;;;;;2.93;1.03;;;;;;;;;;5061515;28;20264;-64
2023/03/11 05:17:59;;;;;;;4.27;1.03;;;;;;;;;;5049021;28;20227;-64
2023/03/11 05:20:24;;;;;;;3.53;1.00;;;;;;;;;;5034381;28;20883;-64
2023/03/11 05:22:50;;;;;;;3.90;0.90;;;;;;;;;;5035399;28;20572;-65
2023/03/11 05:25:15;;;;;;;2.70;1.07;;;;;;;;;;5041267;28;20219;-63
2023/03/11 05:27:40;;;;;;;4.33;1.00;;;;;;;;;;5042099;28;20265;-64
2023/03/11 05:30:06;;;;;;;1.97;0.90;;;;;;;;;;5041806;28;20215;-63
2023/03/11 05:32:31;;;;;;;4.30;1.20;;;;;;;;;;5041142;28;20215;-64
2023/03/11 05:34:57;;;;;;;5.17;1.33;;;;;;;;;;5046636;28;20214;-63
2023/03/11 05:37:22;;;;;;;4.70;1.20;;;;;;;;;;5059013;28;20582;-64
2023/03/11 05:39:47;;;;;;;5.60;1.47;;;;;;;;;;5044176;28;20206;-64
2023/03/11 05:42:12;;;;;;;4.30;1.30;;;;;;;;;;5057075;28;20214;-64
2023/03/11 05:44:38;;;;;;;2.30;0.83;;;;;;;;;;5054369;28;20279;-64
2023/03/11 05:47:03;;;;;;;2.90;0.90;;;;;;;;;;5042280;28;20298;-64
2023/03/11 05:49:28;;;;;;;3.93;1.20;;;;;;;;;;5051252;28;20234;-64
2023/03/11 05:51:54;;;;;;;3.57;1.17;;;;;;;;;;5061317;28;20214;-64
2023/03/11 05:54:19;;;;;;;4.10;1.07;;;;;;;;;;5060332;28;20234;-63
2023/03/11 05:56:45;;;;;;;4.10;1.30;;;;;;;;;;5061259;28;20206;-64
2023/03/11 05:59:10;;;;;;;3.10;1.07;;;;;;;;;;5049290;28;20730;-64
2023/03/11 06:01:36;;;;;;;4.10;1.10;;;;;;;;;;5040782;28;20282;-64
2023/03/11 06:04:01;;;;;;;3.60;1.27;;;;;;;;;;5040383;28;21481;-63
2023/03/11 06:06:26;;;;;;;3.27;1.00;;;;;;;;;;5053825;28;20203;-64
2023/03/11 06:08:53;;;;;;;4.90;1.27;;;;;;;;;;5052884;28;20214;-64
2023/03/11 06:11:18;;;;;;;4.33;1.17;;;;;;;;;;5054913;28;20260;-64
2023/03/11 06:13:43;;;;;;;3.60;0.90;;;;;;;;;;5060448;28;21091;-64
2023/03/11 06:16:08;;;;;;;4.70;1.00;;;;;;;;;;5060186;28;20238;-63
2023/03/11 06:18:34;;;;;;;4.40;1.20;;;;;;;;;;5050665;28;20944;-64
2023/03/11 06:20:59;;;;;;;4.67;1.10;;;;;;;;;;5040474;28;20580;-64
2023/03/11 06:23:25;;;;;;;4.13;1.30;;;;;;;;;;5040417;28;20212;-64
2023/03/11 06:25:56;;;;;;;2.80;0.90;;;;;;;;;;5041217;28;20223;-64
2023/03/11 06:28:21;;;;;;;2.40;0.93;;;;;;;;;;5033339;28;20664;-64
2023/03/11 06:30:47;;;;;;;4.10;1.13;;;;;;;;;;5043567;28;20234;-64
2023/03/11 06:33:13;;;;;;;2.10;0.87;;;;;;;;;;5033292;28;20215;-64
2023/03/11 06:35:39;;;;;;;3.87;1.00;;;;;;;;;;5059061;28;20233;-64
2023/03/11 06:38:04;;;;;;;3.57;1.23;;;;;;;;;;5040275;28;20587;-64
2023/03/11 06:40:30;;;;;;;4.47;1.30;;;;;;;;;;5040876;28;20229;-64
2023/03/11 06:42:55;;;;;;;5.53;1.23;;;;;;;;;;5040016;28;20207;-64
2023/03/11 06:45:20;;;;;;;4.97;1.17;;;;;;;;;;5040509;28;20238;-64
2023/03/11 06:47:45;;;;;;;3.27;1.10;;;;;;;;;;5040473;28;20226;-64
2023/03/11 06:50:11;;;;;;;6.23;1.10;;;;;;;;;;5036170;28;20222;-64
2023/03/11 06:52:36;;;;;;;3.97;1.13;;;;;;;;;;5053011;28;20264;-66
2023/03/11 06:55:02;;;;;;;5.30;1.07;;;;;;;;;;5052575;28;20275;-64
2023/03/11 06:57:29;;;;;;;3.63;1.20;;;;;;;;;;5048167;28;20203;-64
2023/03/11 06:59:55;;;;;;;4.63;1.30;;;;;;;;;;5060007;28;20230;-65
2023/03/11 07:02:20;;;;;;;4.90;1.10;;;;;;;;;;5052616;28;20215;-65
2023/03/11 07:04:47;;;;;;;3.73;1.10;;;;;;;;;;5039817;28;20215;-65
2023/03/11 07:07:12;;;;;;;4.87;1.33;;;;;;;;;;5041170;28;20670;-64
2023/03/11 07:09:38;;;;;;;4.87;1.20;;;;;;;;;;5055545;28;20210;-65
2023/03/11 07:12:03;;;;;;;6.20;1.10;;;;;;;;;;5056561;28;20252;-64
2023/03/11 07:14:29;;;;;;;3.70;1.10;;;;;;;;;;5052951;28;20218;-65
2023/03/11 07:16:54;;;;;;;11.23;8.40;;;;;;;;;;5052389;28;20246;-65
2023/03/11 07:19:19;;;;;;;3.10;1.30;;;;;;;;;;5037953;28;20679;-65
2023/03/11 07:21:44;;;;;;;4.13;1.33;;;;;;;;;;5042353;28;20215;-65
2023/03/11 07:24:11;;;;;;;2.37;0.80;;;;;;;;;;5062816;28;20214;-65
2023/03/11 07:26:36;;;;;;;3.87;1.10;;;;;;;;;;5055911;28;20762;-64
2023/03/11 07:29:01;;;;;;;2.60;0.77;;;;;;;;;;5073641;28;20214;-65
2023/03/11 07:31:28;;;;;;;3.63;1.20;;;;;;;;;;5072237;28;21327;-70
2023/03/11 07:33:53;;;;;;;3.63;1.07;;;;;;;;;;5074079;28;20233;-68
2023/03/11 07:36:19;;;;;;;3.10;1.00;;;;;;;;;;5072893;28;20693;-71
2023/03/11 07:38:45;;;;;;;3.43;1.10;;;;;;;;;;5072659;28;20626;-71
2023/03/11 07:41:10;;;;;;;4.07;1.00;;;;;;;;;;5054956;28;20221;-70
2023/03/11 07:43:36;;;;;;;3.97;0.90;;;;;;;;;;5073438;28;20209;-71
2023/03/11 07:46:03;;;;;;;5.10;1.27;;;;;;;;;;5071797;28;20262;-70
2023/03/11 07:48:28;;;;;;;3.38;0.90;;;;;;;;;;5072777;28;20601;-72
2023/03/11 07:51:01;;;;;;;3.30;0.98;;;;;;;;;;5079645;28;20227;-71
2023/03/11 07:53:26;;;;;;;3.60;1.20;;;;;;;;;;5077799;28;20214;-71
2023/03/11 07:55:55;;;;;;;2.67;0.98;;;;;;;;;;5073368;28;20210;-73
2023/03/11 07:58:20;;;;;;;2.72;0.98;;;;;;;;;;5072495;28;20275;-71
2023/03/11 08:00:45;;;;;;;2.47;1.00;;;;;;;;;;5072090;28;20414;-69
2023/03/11 08:03:11;;;;;;;4.20;1.10;;;;;;;;;;5072958;28;20899;-73
2023/03/11 08:05:36;;;;;;;4.07;1.00;;;;;;;;;;5073368;28;20734;-71
2023/03/11 08:08:02;;;;;;;2.78;0.80;;;;;;;;;;5071795;28;20318;-70
2023/03/11 08:10:27;;;;;;;4.50;0.90;;;;;;;;;;5072749;28;20210;-70
2023/03/11 08:12:52;;;;;;;2.90;0.90;;;;;;;;;;5072804;28;20241;-73
2023/03/11 08:15:17;;;;;;;3.28;0.88;;;;;;;;;;5071658;28;20731;-73
2023/03/11 08:17:43;;;;;;;2.05;0.90;;;;;;;;;;5072868;28;20356;-75
2023/03/11 08:20:09;;;;;;;3.25;0.88;;;;;;;;;;5072706;28;20324;-74
2023/03/11 08:22:34;;;;;;;1.67;0.70;;;;;;;;;;5072085;28;20209;-74
2023/03/11 08:24:59;;;;;;;2.40;0.90;;;;;;;;;;5073108;28;20287;-74
2023/03/11 08:27:26;;;;;;;2.97;0.80;;;;;;;;;;5053382;28;20218;-75
2023/03/11 08:29:51;;;;;;;3.35;0.90;;;;;;;;;;5072762;28;20344;-75
2023/03/11 08:32:17;;;;;;;3.70;0.90;;;;;;;;;;5072489;28;20729;-75
2023/03/11 08:34:42;;;;;;;2.45;0.98;;;;;;;;;;5052168;28;20986;-74
2023/03/11 08:37:07;;;;;;;2.63;0.90;;;;;;;;;;5052216;28;20690;-74
2023/03/11 08:39:33;;;;;;;1.92;0.85;;;;;;;;;;5052781;28;20298;-75
2023/03/11 08:41:58;;;;;;;3.10;0.95;;;;;;;;;;5051943;28;20620;-73
2023/03/11 08:44:24;;;;;;;2.95;0.85;;;;;;;;;;5052100;28;20731;-72
2023/03/11 08:46:49;;;;;;;2.83;0.80;;;;;;;;;;5052251;28;20218;-72
2023/03/11 08:49:14;;;;;;;2.03;0.80;;;;;;;;;;5067383;28;20306;-71
2023/03/11 08:51:39;;;;;;;2.92;0.73;;;;;;;;;;5072592;28;20214;-71
2023/03/11 08:54:05;;;;;;;2.88;0.90;;;;;;;;;;5072046;28;20210;-73
2023/03/11 08:56:30;;;;;;;2.00;0.70;;;;;;;;;;5071672;28;20209;-69
2023/03/11 08:58:55;;;;;;;2.38;0.85;;;;;;;;;;5072401;28;20305;-70
2023/03/11 09:01:22;;;;;;;2.03;0.77;;;;;;;;;;5071786;28;20217;-74
2023/03/11 09:03:47;;;;;;;1.73;0.73;;;;;;;;;;5071195;28;20216;-72
2023/03/11 09:06:14;;;;;;;3.95;0.77;;;;;;;;;;5054057;28;20207;-71
2023/03/11 09:08:39;;;;;;;2.95;0.90;;;;;;;;;;5072328;28;20226;-69
2023/03/11 09:11:05;;;;;;;2.70;0.98;;;;;;;;;;5070896;28;20216;-68
2023/03/11 09:13:30;;;;;;;2.97;0.80;;;;;;;;;;5071775;28;20202;-68
2023/03/11 09:15:55;;;;;;;3.80;0.80;;;;;;;;;;5071874;28;20198;-68
2023/03/11 09:18:20;;;;;;;4.22;0.90;;;;;;;;;;5070568;28;20682;-68
2023/03/11 09:20:46;;;;;;;3.22;0.85;;;;;;;;;;5071950;28;20213;-67
2023/03/11 09:23:12;;;;;;;2.00;0.80;;;;;;;;;;5071407;28;20202;-67
2023/03/11 09:25:37;;;;;;;3.45;0.70;;;;;;;;;;5071189;28;20211;-67
2023/03/11 09:28:02;;;;;;;3.63;0.90;;;;;;;;;;5071219;28;20685;-67
2023/03/11 09:30:28;;;;;;;3.05;0.73;;;;;;;;;;5071789;28;20206;-66
2023/03/11 09:32:53;;;;;;;3.92;0.85;;;;;;;;;;5070909;28;20202;-67
2023/03/11 09:35:18;;;;;;;2.88;0.70;;;;;;;;;;5071356;28;20217;-66
2023/03/11 09:37:44;;;;;;;1.83;0.82;;;;;;;;;;5071235;28;20240;-66
2023/03/11 09:40:12;;;;;;;1.63;0.70;;;;;;;;;;5071037;28;20673;-67
2023/03/11 09:42:44;;;;;;;3.17;0.80;;;;;;;;;;5053554;28;20245;-68
2023/03/11 09:45:17;;;;;;;2.25;0.70;;;;;;;;;;5052643;28;20210;-67
2023/03/11 09:47:54;;;;;;;4.00;0.90;;;;;;;;;;5069981;28;20249;-69
2023/03/11 09:50:21;;;;;;;2.80;0.80;;;;;;;;;;5053097;28;20677;-69
2023/03/11 09:52:49;;;;;;;1.92;0.70;;;;;;;;;;5052781;28;20259;-69
2023/03/11 09:55:26;;;;;;;2.38;0.60;;;;;;;;;;5070601;28;20216;-69
2023/03/11 09:57:51;;;;;;;3.95;0.80;;;;;;;;;;5053449;28;20214;-70
2023/03/11 10:00:18;;;;;;;1.85;0.60;;;;;;;;;;5052118;28;20213;-71
2023/03/11 10:02:43;;;;;;;1.70;0.60;;;;;;;;;;5053195;28;20213;-71
2023/03/11 10:05:13;;;;;;;2.42;0.75;;;;;;;;;;5070760;28;20207;-71
2023/03/11 10:07:39;;;;;;;2.63;0.60;;;;;;;;;;5052621;28;20222;-72
2023/03/11 10:10:04;;;;;;;3.15;0.80;;;;;;;;;;5070460;28;20233;-72
2023/03/11 10:12:31;;;;;;;2.20;0.85;;;;;;;;;;5071034;28;20206;-74
2023/03/11 10:15:14;;;;;;;3.88;0.85;;;;;;;;;;5070144;28;20574;-74
2023/03/11 10:17:54;;;;;;;4.53;0.80;;;;;;;;;;5050289;28;20229;-73
2023/03/11 10:20:21;;;;;;;1.40;0.52;;;;;;;;;;5049750;28;20219;-73
2023/03/11 10:22:52;;;;;;;3.33;0.68;;;;;;;;;;5049760;28;20211;-73
2023/03/11 10:25:20;;;;;;;2.30;0.68;;;;;;;;;;5050402;28;20743;-74
2023/03/11 10:27:47;;;;;;;2.80;0.70;;;;;;;;;;5043967;28;20215;-74
2023/03/11 10:30:18;;;;;;;3.20;0.80;;;;;;;;;;5052243;28;20658;-75
2023/03/11 10:32:45;;;;;;;3.05;0.80;;;;;;;;;;5052354;28;20199;-75
2023/03/11 10:35:11;;;;;;;3.78;0.65;;;;;;;;;;5051699;28;20207;-75
2023/03/11 10:37:38;;;;;;;2.88;0.70;;;;;;;;;;5070577;28;20259;-75
2023/03/11 10:40:09;;;;;;;2.72;0.60;;;;;;;;;;5069962;28;20304;-75
2023/03/11 10:42:35;;;;;;;2.63;0.70;;;;;;;;;;5052045;28;20210;-75
2023/03/11 10:45:00;;;;;;;2.88;0.80;;;;;;;;;;5069878;28;20221;-66
2023/03/11 10:47:25;;;;;;;2.00;0.85;;;;;;;;;;5052182;28;20244;-75
2023/03/11 10:49:52;;;;;;;3.55;0.70;;;;;;;;;;5051895;28;20211;-75
2023/03/11 10:52:18;;;;;;;2.30;0.70;;;;;;;;;;5069987;28;20206;-75
2023/03/11 10:54:46;;;;;;;4.05;0.90;;;;;;;;;;5070254;28;20348;-75
2023/03/11 10:57:19;;;;;;;2.80;0.63;;;;;;;;;;5069175;28;20210;-75
2023/03/11 10:59:45;;;;;;;3.10;0.90;;;;;;;;;;5052116;28;20213;-75
2023/03/11 11:02:24;;;;;;;3.28;0.73;;;;;;;;;;5069230;28;20222;-75
2023/03/11 11:05:01;;;;;;;2.95;0.70;;;;;;;;;;5052616;28;20248;-75
2023/03/11 11:07:28;;;;;;;2.85;0.60;;;;;;;;;;5051864;28;20272;-75
2023/03/11 11:10:12;;;;;;;3.78;0.80;;;;;;;;;;5069304;28;20206;-75
2023/03/11 11:12:58;;;;;;;3.42;0.70;;;;;;;;;;5069891;28;20210;-75
2023/03/11 11:15:24;;;;;;;3.70;0.70;;;;;;;;;;5069417;28;20213;-75
2023/03/11 11:17:50;;;;;;;3.42;0.70;;;;;;;;;;5047173;28;20215;-75
2023/03/11 11:20:16;;;;;;;2.33;0.90;;;;;;;;;;5031885;28;20661;-75
2023/03/11 11:22:46;;;;;;;1.88;0.70;;;;;;;;;;5049948;28;20689;-75
2023/03/11 11:25:32;;;;;;;2.90;0.70;;;;;;;;;;5030915;28;20294;-75
2023/03/11 11:27:59;;;;;;;3.42;0.70;;;;;;;;;;5050038;28;20341;-75
2023/03/11 11:30:24;;;;;;;1.75;0.60;;;;;;;;;;5048810;28;20576;-75
2023/03/11 11:32:52;;;;;;;2.22;0.80;;;;;;;;;;5049862;28;20207;-75
2023/03/11 11:35:18;;;;;;;3.10;0.70;;;;;;;;;;5049620;28;20211;-75
2023/03/11 11:37:46;;;;;;;1.95;0.70;;;;;;;;;;5048154;28;20207;-72
2023/03/11 11:40:11;;;;;;;2.03;0.70;;;;;;;;;;5049532;28;20210;-74
2023/03/11 11:42:37;;;;;;;1.52;0.60;;;;;;;;;;5049807;28;20297;-73
2023/03/11 11:45:06;;;;;;;3.20;0.73;;;;;;;;;;5048836;28;20253;-72
2023/03/11 11:47:32;;;;;;;2.47;0.65;;;;;;;;;;5048314;28;20252;-72
2023/03/11 11:49:59;;;;;;;3.03;0.80;;;;;;;;;;5044034;28;20219;-72
2023/03/11 11:52:26;;;;;;;3.70;0.80;;;;;;;;;;5048484;28;20689;-73
2023/03/11 11:54:52;;;;;;;2.15;0.55;;;;;;;;;;5049869;28;20207;-72
2023/03/11 11:57:19;;;;;;;3.00;0.75;;;;;;;;;;5031306;28;20215;-72
2023/03/11 11:59:44;;;;;;;2.63;0.73;;;;;;;;;;5048986;28;20226;-72
2023/03/11 12:02:20;;;;;;;2.83;0.70;;;;;;;;;;5031168;28;20956;-72
2023/03/11 12:04:53;;;;;;;2.17;0.80;;;;;;;;;;5049709;28;20226;-72
2023/03/11 12:07:33;;;;;;;2.30;0.55;;;;;;;;;;5048527;28;20302;-72
2023/03/11 12:10:01;;;;;;;3.28;0.60;;;;;;;;;;5032280;28;20215;-72
2023/03/11 12:12:32;;;;;;;0.85;0.40;;;;;;;;;;5052359;28;20211;-72
2023/03/11 12:15:00;;;;;;;2.13;0.70;;;;;;;;;;5053324;28;20210;-72
2023/03/11 12:17:25;;;;;;;3.55;0.57;;;;;;;;;;5034695;28;20223;-72
2023/03/11 12:19:53;;;;;;;2.40;0.70;;;;;;;;;;5046474;28;20207;-72
2023/03/11 12:22:24;;;;;;;3.38;0.70;;;;;;;;;;5052748;28;20219;-72
2023/03/11 12:24:50;;;;;;;1.27;0.65;;;;;;;;;;5051879;28;20260;-72
2023/03/11 12:27:20;;;;;;;1.83;0.60;;;;;;;;;;5053843;28;20313;-72
2023/03/11 12:29:46;;;;;;;2.00;0.70;;;;;;;;;;5055229;28;20215;-72
2023/03/11 12:32:18;;;;;;;3.38;0.82;;;;;;;;;;5054479;28;20282;-71
2023/03/11 12:34:44;;;;;;;2.10;0.80;;;;;;;;;;5054239;28;20210;-72
2023/03/11 12:37:17;;;;;;;2.55;0.63;;;;;;;;;;5054457;28;20210;-72
2023/03/11 12:39:42;;;;;;;2.53;0.70;;;;;;;;;;5055013;28;20242;-72
2023/03/11 12:42:14;;;;;;;2.40;0.70;;;;;;;;;;5071440;28;20245;-72
2023/03/11 12:44:39;;;;;;;3.58;0.60;;;;;;;;;;5071510;28;20605;-72
2023/03/11 12:47:11;;;;;;;2.38;0.60;;;;;;;;;;5054180;28;20334;-71
2023/03/11 12:49:42;;;;;;;1.52;0.60;;;;;;;;;;5071714;28;20217;-72
2023/03/11 12:52:13;;;;;;;2.53;0.70;;;;;;;;;;5071989;28;20221;-71
2023/03/11 12:54:40;;;;;;;1.05;0.50;;;;;;;;;;5072212;28;20210;-72
2023/03/11 12:57:09;;;;;;;1.65;0.65;;;;;;;;;;5071829;28;20223;-70
2023/03/11 12:59:52;;;;;;;1.23;0.60;;;;;;;;;;5072459;28;20230;-71
2023/03/11 13:02:36;;;;;;;1.77;0.80;;;;;;;;;;5071015;28;20206;-71
2023/03/11 13:05:03;;;;;;;2.88;0.80;;;;;;;;;;5071931;28;20211;-70
2023/03/11 13:07:36;;;;;;;3.58;0.90;;;;;;;;;;5072229;28;20617;-71
2023/03/11 13:10:03;;;;;;;1.55;0.60;;;;;;;;;;5053328;28;20207;-70
2023/03/11 13:12:41;;;;;;;2.25;0.60;;;;;;;;;;5054329;28;20207;-72
2023/03/11 13:15:18;;;;;;;2.22;0.80;;;;;;;;;;5071778;28;20688;-70
2023/03/11 13:17:58;;;;;;;1.73;0.60;;;;;;;;;;5071264;28;20214;-72
2023/03/11 13:20:54;;;;;;;0.88;0.50;;;;;;;;;;5071567;28;20786;-70
2023/03/11 13:23:27;;;;;;;1.30;0.70;;;;;;;;;;5070833;28;20202;-70
2023/03/11 13:25:52;;;;;;;1.60;0.70;;;;;;;;;;5071995;28;20211;-70
2023/03/11 13:28:27;;;;;;;2.30;0.70;;;;;;;;;;5071184;28;20245;-70
2023/03/11 13:31:08;;;;;;;3.17;0.90;;;;;;;;;;5068578;28;20213;-71
2023/03/11 13:33:45;;;;;;;3.70;0.98;;;;;;;;;;5022689;28;20215;-71
2023/03/11 13:36:13;;;;;;;1.45;0.60;;;;;;;;;;5041676;28;20435;-70
2023/03/11 13:38:57;;;;;;;3.00;0.90;;;;;;;;;;5057175;28;20713;-71
2023/03/11 13:41:29;;;;;;;2.15;0.88;;;;;;;;;;5057304;28;20260;-70
2023/03/11 13:43:55;;;;;;;2.30;0.85;;;;;;;;;;5027793;28;20250;-70
2023/03/11 13:46:25;;;;;;;3.00;0.65;;;;;;;;;;5045752;28;20797;-70
2023/03/11 13:48:51;;;;;;;1.45;0.57;;;;;;;;;;5028105;28;20219;-70
2023/03/11 13:51:17;;;;;;;2.50;0.73;;;;;;;;;;5027196;28;20760;-70
2023/03/11 13:53:43;;;;;;;2.60;1.02;;;;;;;;;;5046253;28;20219;-70
2023/03/11 13:56:16;;;;;;;3.90;1.10;;;;;;;;;;5059539;28;20198;-70
2023/03/11 13:58:41;;;;;;;2.78;0.70;;;;;;;;;;5039182;28;20244;-70
2023/03/11 14:01:10;;;;;;;1.83;0.60;;;;;;;;;;5058271;28;20218;-70
2023/03/11 14:03:39;;;;;;;3.88;0.93;;;;;;;;;;5044421;28;20272;-70
2023/03/11 14:06:05;;;;;;;2.45;1.23;;;;;;;;;;5063926;28;20210;-70
2023/03/11 14:08:31;;;;;;;4.20;1.83;;;;;;;;;;5046261;28;20227;-70
2023/03/11 14:10:56;;;;;;;4.22;1.40;;;;;;;;;;5045641;28;20230;-70
2023/03/11 14:13:22;;;;;;;3.80;2.20;;;;;;;;;;5044661;28;20218;-70
2023/03/11 14:15:50;;;;;;;3.53;1.00;;;;;;;;;;5043745;28;20203;-70
2023/03/11 14:18:26;;;;;;;1.77;0.60;;;;;;;;;;5024125;28;20319;-70
2023/03/11 14:20:51;;;;;;;1.98;0.70;;;;;;;;;;5056479;28;20283;-71
2023/03/11 14:23:17;;;;;;;1.48;0.65;;;;;;;;;;5043344;28;20322;-70
2023/03/11 14:25:42;;;;;;;3.13;0.70;;;;;;;;;;5059358;28;20214;-70
2023/03/11 14:28:12;;;;;;;1.65;0.60;;;;;;;;;;5044346;28;20314;-70
2023/03/11 14:30:37;;;;;;;1.35;0.80;;;;;;;;;;5028906;28;21027;-70
2023/03/11 14:33:03;;;;;;;2.83;0.90;;;;;;;;;;5043855;28;20214;-71
2023/03/11 14:35:29;;;;;;;3.03;0.80;;;;;;;;;;5063580;28;20268;-70
2023/03/11 14:37:54;;;;;;;2.58;1.15;;;;;;;;;;5064692;28;20601;-71
2023/03/11 14:40:22;;;;;;;2.00;0.57;;;;;;;;;;5061993;28;20214;-70
2023/03/11 14:42:52;;;;;;;1.67;0.52;;;;;;;;;;5037259;28;20219;-70